createdAt,value
2019-04-28T00:01:31.088Z,2.30
2019-04-28T00:04:01.308Z,2.53
2019-04-28T00:06:31.079Z,2.90
2019-04-28T00:09:01.606Z,2.60
2019-04-28T00:11:31.633Z,2.17
2019-04-28T00:14:01.901Z,2.40
2019-04-28T00:16:31.119Z,2.63
2019-04-28T00:19:01.130Z,1.67
2019-04-28T00:21:41.469Z,2.30
2019-04-28T00:24:27.041Z,1.87
2019-04-28T00:26:57.291Z,2.10
2019-04-28T00:29:37.729Z,2.20
2019-04-28T00:31:55.910Z,2.00
2019-04-28T00:34:24.553Z,2.03
2019-04-28T00:36:54.673Z,2.27
2019-04-28T00:39:23.084Z,1.80
2019-04-28T00:41:51.735Z,2.10
2019-04-28T00:44:21.819Z,2.17
2019-04-28T00:46:51.148Z,2.10
2019-04-28T00:49:23.288Z,2.40
2019-04-28T00:51:51.826Z,2.50
2019-04-28T00:54:21.826Z,2.33
2019-04-28T00:56:51.692Z,2.00
2019-04-28T00:59:21.705Z,2.13
2019-04-28T01:01:54.652Z,2.20
2019-04-28T01:04:23.084Z,2.13
2019-04-28T01:06:52.123Z,2.40
2019-04-28T01:09:21.766Z,2.50
2019-04-28T01:11:51.163Z,2.10
2019-04-28T01:14:21.313Z,2.20
2019-04-28T01:16:51.621Z,5.03
2019-04-28T01:19:21.668Z,3.20
2019-04-28T01:21:57.730Z,2.90
2019-04-28T01:24:26.251Z,2.40
2019-04-28T01:26:56.227Z,2.00
2019-04-28T01:29:24.633Z,2.27
2019-04-28T01:32:00.723Z,2.50
2019-04-28T01:34:30.047Z,2.40
2019-04-28T01:36:59.817Z,2.27
2019-04-28T01:39:29.759Z,2.93
2019-04-28T01:41:59.516Z,2.50
2019-04-28T01:44:29.717Z,2.20
2019-04-28T01:47:00.996Z,2.20
2019-04-28T01:49:29.512Z,1.90
2019-04-28T01:52:00.861Z,2.43
2019-04-28T01:54:30.383Z,2.20
2019-04-28T01:57:01.105Z,2.30
2019-04-28T01:59:30.277Z,2.50
2019-04-28T02:02:00.067Z,2.40
2019-04-28T02:04:32.177Z,2.30
2019-04-28T02:06:59.832Z,2.30
2019-04-28T02:09:29.602Z,2.30
2019-04-28T02:11:58.272Z,2.30
2019-04-28T02:14:26.678Z,1.90
2019-04-28T02:16:55.128Z,2.13
2019-04-28T02:19:23.527Z,2.23
2019-04-28T02:21:53.602Z,1.97
2019-04-28T02:24:26.417Z,2.10
2019-04-28T02:26:54.905Z,2.10
2019-04-28T02:29:23.297Z,2.20
2019-04-28T02:31:52.083Z,1.87
2019-04-28T02:34:21.132Z,1.87
2019-04-28T02:36:50.617Z,1.97
2019-04-28T02:39:20.715Z,2.37
2019-04-28T02:41:51.157Z,2.23
2019-04-28T02:44:23.078Z,2.27
2019-04-28T02:46:50.731Z,2.13
2019-04-28T02:49:21.200Z,2.07
2019-04-28T02:51:51.310Z,2.00
2019-04-28T02:54:20.377Z,1.83
2019-04-28T02:56:51.044Z,2.07
2019-04-28T02:59:21.017Z,2.30
2019-04-28T03:01:50.955Z,2.00
2019-04-28T03:04:20.318Z,1.80
2019-04-28T03:06:51.619Z,2.00
2019-04-28T03:09:20.268Z,1.93
2019-04-28T03:11:51.042Z,2.23
2019-04-28T03:14:20.884Z,2.10
2019-04-28T03:16:50.991Z,2.03
2019-04-28T03:19:21.155Z,1.97
2019-04-28T03:21:51.009Z,1.97
2019-04-28T03:24:21.295Z,2.20
2019-04-28T03:26:54.304Z,2.17
2019-04-28T03:29:33.380Z,1.73
2019-04-28T03:32:28.789Z,2.30
2019-04-28T03:34:44.778Z,2.60
2019-04-28T03:37:13.289Z,1.90
2019-04-28T03:39:41.694Z,2.00
2019-04-28T03:42:11.671Z,2.00
2019-04-28T03:44:41.384Z,2.53
2019-04-28T03:47:10.757Z,1.93
2019-04-28T03:49:40.590Z,2.00
2019-04-28T03:52:10.760Z,2.10
2019-04-28T03:54:40.944Z,2.43
2019-04-28T03:57:11.358Z,2.10
2019-04-28T03:59:43.089Z,2.13
2019-04-28T04:02:11.382Z,2.27
2019-04-28T04:04:41.513Z,2.13
2019-04-28T04:07:11.156Z,2.10
2019-04-28T04:09:41.522Z,2.17
2019-04-28T04:12:27.197Z,2.17
2019-04-28T04:14:57.260Z,2.07
2019-04-28T04:17:33.607Z,2.30
2019-04-28T04:20:02.208Z,2.17
2019-04-28T04:22:31.408Z,2.50
2019-04-28T04:25:01.341Z,1.80
2019-04-28T04:27:30.941Z,1.90
2019-04-28T04:30:01.527Z,2.20
2019-04-28T04:32:30.395Z,2.10
2019-04-28T04:35:00.761Z,2.17
2019-04-28T04:37:30.776Z,2.27
2019-04-28T04:40:01.256Z,2.00
2019-04-28T04:42:30.667Z,2.00
2019-04-28T04:45:00.575Z,2.20
2019-04-28T04:47:32.479Z,2.30
2019-04-28T04:50:00.351Z,2.17
2019-04-28T04:52:30.454Z,2.23
2019-04-28T04:55:01.316Z,2.13
2019-04-28T04:57:32.428Z,2.10
2019-04-28T05:00:00.720Z,2.10
2019-04-28T05:02:36.464Z,2.33
2019-04-28T05:05:08.171Z,2.10
2019-04-28T05:07:36.585Z,2.60
2019-04-28T05:10:06.616Z,2.20
2019-04-28T05:12:35.337Z,2.43
2019-04-28T05:15:05.078Z,2.80
2019-04-28T05:17:33.898Z,2.53
2019-04-28T05:20:02.301Z,2.37
2019-04-28T05:22:32.344Z,2.50
2019-04-28T05:25:05.701Z,2.73
2019-04-28T05:27:34.101Z,2.30
2019-04-28T05:30:05.076Z,2.43
2019-04-28T05:32:44.610Z,2.50
2019-04-28T05:35:05.060Z,2.40
2019-04-28T05:37:33.799Z,2.30
2019-04-28T05:40:02.745Z,2.23
2019-04-28T05:42:31.409Z,2.10
2019-04-28T05:45:00.072Z,1.93
2019-04-28T05:47:30.434Z,1.97
2019-04-28T05:50:10.608Z,2.00
2019-04-28T05:53:00.598Z,2.10
2019-04-28T05:55:36.784Z,2.00
2019-04-28T05:58:21.920Z,2.10
2019-04-28T06:00:51.956Z,2.27
2019-04-28T06:03:25.207Z,2.00
2019-04-28T06:05:56.832Z,1.90
2019-04-28T06:08:34.645Z,1.73
2019-04-28T06:11:04.692Z,1.77
2019-04-28T06:13:33.079Z,1.70
2019-04-28T06:16:01.818Z,1.70
2019-04-28T06:18:30.845Z,1.80
2019-04-28T06:20:59.361Z,1.50
2019-04-28T06:23:28.019Z,2.37
2019-04-28T06:25:56.656Z,2.17
2019-04-28T06:28:25.058Z,1.53
2019-04-28T06:30:53.449Z,1.70
2019-04-28T06:33:21.920Z,1.73
2019-04-28T06:35:50.595Z,1.33
2019-04-28T06:38:19.293Z,1.63
2019-04-28T06:40:47.992Z,1.73
2019-04-28T06:43:16.684Z,1.93
2019-04-28T06:45:45.393Z,2.27
2019-04-28T06:48:13.831Z,2.17
2019-04-28T06:50:42.220Z,2.40
2019-04-28T06:53:10.625Z,1.70
2019-04-28T06:55:39.032Z,1.83
2019-04-28T06:58:07.760Z,2.23
2019-04-28T07:00:36.572Z,2.00
2019-04-28T07:03:05.154Z,2.03
2019-04-28T07:05:33.855Z,1.87
2019-04-28T07:08:02.552Z,2.17
2019-04-28T07:10:30.973Z,2.23
2019-04-28T07:12:59.364Z,2.20
2019-04-28T07:15:28.056Z,2.00
2019-04-28T07:17:56.735Z,2.57
2019-04-28T07:20:27.076Z,2.40
2019-04-28T07:22:55.775Z,2.20
2019-04-28T07:25:24.471Z,2.47
2019-04-28T07:27:52.872Z,2.47
2019-04-28T07:30:21.680Z,2.37
2019-04-28T07:32:50.083Z,2.67
2019-04-28T07:35:18.512Z,2.47
2019-04-28T07:37:46.946Z,2.27
2019-04-28T07:40:15.424Z,2.80
2019-04-28T07:42:44.142Z,2.20
2019-04-28T07:45:12.940Z,2.55
2019-04-28T07:47:41.636Z,2.30
2019-04-28T07:50:10.275Z,2.10
2019-04-28T07:52:40.573Z,2.33
2019-04-28T07:55:09.302Z,2.80
2019-04-28T07:57:38.071Z,2.17
2019-04-28T08:00:09.044Z,2.60
2019-04-28T08:02:37.728Z,2.30
2019-04-28T08:05:07.908Z,2.10
2019-04-28T08:07:36.663Z,2.47
2019-04-28T08:10:07.106Z,2.33
2019-04-28T08:12:35.504Z,2.70
2019-04-28T08:15:04.763Z,2.30
2019-04-28T08:17:33.174Z,2.20
2019-04-28T08:20:02.111Z,2.60
2019-04-28T08:22:30.493Z,2.23
2019-04-28T08:24:59.196Z,2.50
2019-04-28T08:27:27.896Z,2.53
2019-04-28T08:29:58.755Z,2.57
2019-04-28T08:32:31.262Z,2.50
2019-04-28T08:35:00.044Z,2.30
2019-04-28T08:37:28.444Z,2.13
2019-04-28T08:39:57.234Z,2.60
2019-04-28T08:42:25.690Z,2.30
2019-04-28T08:44:54.424Z,2.40
2019-04-28T08:47:23.238Z,2.70
2019-04-28T08:49:51.645Z,2.53
2019-04-28T08:52:20.059Z,2.50
2019-04-28T08:54:48.475Z,3.00
2019-04-28T08:57:16.869Z,2.80
2019-04-28T08:59:45.279Z,3.03
2019-04-28T09:02:13.756Z,3.50
2019-04-28T09:04:42.574Z,3.37
2019-04-28T09:07:10.974Z,3.13
2019-04-28T09:09:39.391Z,3.13
2019-04-28T09:12:07.796Z,3.37
2019-04-28T09:14:36.173Z,3.60
2019-04-28T09:17:04.684Z,4.23
2019-04-28T09:19:33.082Z,3.90
2019-04-28T09:22:01.483Z,3.73
2019-04-28T09:24:30.233Z,3.77
2019-04-28T09:26:58.632Z,3.40
2019-04-28T09:29:27.359Z,3.43
2019-04-28T09:31:55.755Z,3.70
2019-04-28T09:34:28.378Z,3.80
2019-04-28T09:36:54.560Z,3.60
2019-04-28T09:39:41.388Z,2.93
2019-04-28T09:42:27.697Z,3.20
2019-04-28T09:44:56.593Z,3.20
2019-04-28T09:47:44.652Z,2.83
2019-04-28T09:50:13.055Z,2.53
2019-04-28T09:52:41.740Z,2.37
2019-04-28T09:55:10.300Z,2.30
2019-04-28T09:57:38.707Z,2.60
2019-04-28T10:00:09.208Z,2.73
2019-04-28T10:02:37.660Z,2.70
2019-04-28T10:05:09.065Z,1.97
2019-04-28T10:07:37.731Z,1.82
2019-04-28T10:10:08.332Z,1.90
2019-04-28T10:12:36.741Z,1.92
2019-04-28T10:15:09.952Z,2.20
2019-04-28T10:17:38.776Z,2.03
2019-04-28T10:20:07.909Z,1.97
2019-04-28T10:22:36.678Z,2.30
2019-04-28T10:25:08.029Z,2.00
2019-04-28T10:27:36.621Z,2.10
2019-04-28T10:30:08.135Z,1.80
2019-04-28T10:32:36.592Z,2.27
2019-04-28T10:35:07.450Z,2.30
2019-04-28T10:37:36.153Z,2.67
2019-04-28T10:40:08.480Z,2.50
2019-04-28T10:42:37.131Z,2.30
2019-04-28T10:45:08.745Z,2.40
2019-04-28T10:47:37.706Z,2.40
2019-04-28T10:50:06.611Z,2.20
2019-04-28T10:52:35.415Z,2.13
2019-04-28T10:55:05.058Z,1.47
2019-04-28T10:57:33.528Z,1.72
2019-04-28T11:00:03.659Z,1.65
2019-04-28T11:02:32.354Z,1.95
2019-04-28T11:05:08.546Z,1.52
2019-04-28T11:07:32.836Z,1.90
2019-04-28T11:10:12.068Z,2.00
2019-04-28T11:12:40.471Z,1.80
2019-04-28T11:15:10.908Z,1.60
2019-04-28T11:17:39.607Z,1.87
2019-04-28T11:20:08.612Z,1.63
2019-04-28T11:22:37.027Z,1.77
2019-04-28T11:25:07.440Z,1.60
2019-04-28T11:27:36.086Z,1.40
2019-04-28T11:30:07.826Z,1.60
2019-04-28T11:32:37.455Z,1.40
2019-04-28T11:35:20.552Z,1.60
2019-04-28T11:37:38.659Z,1.60
2019-04-28T11:40:07.499Z,1.62
2019-04-28T11:42:36.180Z,1.40
2019-04-28T11:45:05.618Z,1.20
2019-04-28T11:47:34.405Z,1.67
2019-04-28T11:50:03.024Z,1.20
2019-04-28T11:52:31.437Z,1.20
2019-04-28T11:54:59.920Z,2.30
2019-04-28T11:57:28.362Z,1.85
2019-04-28T11:59:56.902Z,1.82
2019-04-28T12:02:25.679Z,1.70
2019-04-28T12:04:55.727Z,1.67
2019-04-28T12:07:24.397Z,1.67
2019-04-28T12:10:05.813Z,1.50
2019-04-28T12:12:53.159Z,1.60
2019-04-28T12:15:38.278Z,1.40
2019-04-28T12:18:08.412Z,1.12
2019-04-28T12:20:36.815Z,1.00
2019-04-28T12:23:05.561Z,1.20
2019-04-28T12:25:34.253Z,1.10
2019-04-28T12:28:02.663Z,1.15
2019-04-28T12:30:31.340Z,1.20
2019-04-28T12:32:59.737Z,1.40
2019-04-28T12:35:28.432Z,1.15
2019-04-28T12:37:56.836Z,1.05
2019-04-28T12:40:25.246Z,1.00
2019-04-28T12:42:53.676Z,1.30
2019-04-28T12:45:34.480Z,1.57
2019-04-28T12:47:52.338Z,1.30
2019-04-28T12:50:22.739Z,1.35
2019-04-28T12:52:51.259Z,1.37
2019-04-28T12:55:19.736Z,1.67
2019-04-28T12:57:48.411Z,1.40
2019-04-28T13:00:21.220Z,1.40
2019-04-28T13:03:07.823Z,1.30
2019-04-28T13:05:37.876Z,1.20
2019-04-28T13:08:06.613Z,1.30
2019-04-28T13:10:35.469Z,1.82
2019-04-28T13:13:04.218Z,1.45
2019-04-28T13:15:32.617Z,1.47
2019-04-28T13:18:01.113Z,1.20
2019-04-28T13:20:29.524Z,1.27
2019-04-28T13:22:58.198Z,1.00
2019-04-28T13:25:26.640Z,1.00
2019-04-28T13:27:55.388Z,0.88
2019-04-28T13:30:23.792Z,0.80
2019-04-28T13:32:52.218Z,1.10
2019-04-28T13:35:20.692Z,0.82
2019-04-28T13:37:49.087Z,1.20
2019-04-28T13:40:31.560Z,1.00
2019-04-28T13:42:59.972Z,1.00
2019-04-28T13:45:29.712Z,1.20
2019-04-28T13:47:58.399Z,0.90
2019-04-28T13:50:34.991Z,0.90
2019-04-28T13:53:03.996Z,1.15
2019-04-28T13:55:46.161Z,0.88
2019-04-28T13:58:16.775Z,0.70
2019-04-28T14:01:03.116Z,0.60
2019-04-28T14:03:42.173Z,0.50
2019-04-28T14:06:28.037Z,0.50
2019-04-28T14:08:51.917Z,0.68
2019-04-28T14:11:20.599Z,0.70
2019-04-28T14:13:48.999Z,1.55
2019-04-28T14:16:17.429Z,1.17
2019-04-28T14:18:45.832Z,0.70
2019-04-28T14:21:14.283Z,0.98
2019-04-28T14:23:43.072Z,0.80
2019-04-28T14:26:11.572Z,0.70
2019-04-28T14:28:40.363Z,1.22
2019-04-28T14:31:09.485Z,0.62
2019-04-28T14:33:38.218Z,1.40
2019-04-28T14:36:07.002Z,1.02
2019-04-28T14:38:35.550Z,0.90
2019-04-28T14:41:04.413Z,1.50
2019-04-28T14:43:32.809Z,1.22
2019-04-28T14:46:01.221Z,1.55
2019-04-28T14:48:29.657Z,1.30
2019-04-28T14:50:58.174Z,1.35
2019-04-28T14:53:26.955Z,1.80
2019-04-28T14:55:55.366Z,1.32
2019-04-28T14:58:23.845Z,1.82
2019-04-28T15:01:06.158Z,1.45
2019-04-28T15:03:36.493Z,1.72
2019-04-28T15:06:09.441Z,1.42
2019-04-28T15:08:52.337Z,1.80
2019-04-28T15:11:25.518Z,0.80
2019-04-28T15:13:55.513Z,1.00
2019-04-28T15:16:24.381Z,1.20
2019-04-28T15:18:52.938Z,1.75
2019-04-28T15:21:21.420Z,1.77
2019-04-28T15:23:50.161Z,2.15
2019-04-28T15:26:18.851Z,1.02
2019-04-28T15:28:47.255Z,2.30
2019-04-28T15:31:15.683Z,1.50
2019-04-28T15:33:44.328Z,1.45
2019-04-28T15:36:13.032Z,1.00
2019-04-28T15:38:41.736Z,0.90
2019-04-28T15:41:20.859Z,1.30
2019-04-28T15:43:40.560Z,1.95
2019-04-28T15:46:09.018Z,1.20
2019-04-28T15:48:37.764Z,1.07
2019-04-28T15:51:06.396Z,1.00
2019-04-28T15:53:36.329Z,1.30
2019-04-28T15:56:15.399Z,1.00
2019-04-28T15:58:43.820Z,1.05
2019-04-28T16:01:12.218Z,1.00
2019-04-28T16:03:40.916Z,1.40
2019-04-28T16:06:09.621Z,1.00
2019-04-28T16:08:38.412Z,0.98
2019-04-28T16:11:07.233Z,1.30
2019-04-28T16:13:36.059Z,1.55
2019-04-28T16:16:04.685Z,1.10
2019-04-28T16:18:33.097Z,1.20
2019-04-28T16:21:01.746Z,0.90
2019-04-28T16:23:30.211Z,1.40
2019-04-28T16:25:58.629Z,1.20
2019-04-28T16:28:27.225Z,1.65
2019-04-28T16:30:55.691Z,1.40
2019-04-28T16:33:24.096Z,2.33
2019-04-28T16:35:52.515Z,2.02
2019-04-28T16:38:21.184Z,1.60
2019-04-28T16:40:57.658Z,1.30
2019-04-28T16:43:31.687Z,3.20
2019-04-28T16:46:00.097Z,1.00
2019-04-28T16:48:28.520Z,0.72
2019-04-28T16:50:56.912Z,0.80
2019-04-28T16:53:25.319Z,0.60
2019-04-28T16:55:55.387Z,0.50
2019-04-28T16:58:25.436Z,0.70
2019-04-28T17:00:58.441Z,0.80
2019-04-28T17:03:28.574Z,0.80
2019-04-28T17:05:56.967Z,0.80
2019-04-28T17:08:25.391Z,0.73
2019-04-28T17:10:54.456Z,0.60
2019-04-28T17:13:22.851Z,1.02
2019-04-28T17:15:51.314Z,0.80
2019-04-28T17:18:19.736Z,0.80
2019-04-28T17:20:48.143Z,0.90
2019-04-28T17:23:16.567Z,1.00
2019-04-28T17:25:44.973Z,0.97
2019-04-28T17:28:13.815Z,0.90
2019-04-28T17:30:43.110Z,0.60
2019-04-28T17:33:11.808Z,0.80
2019-04-28T17:35:40.503Z,0.70
2019-04-28T17:38:08.925Z,0.70
2019-04-28T17:40:37.671Z,0.77
2019-04-28T17:43:07.603Z,0.90
2019-04-28T17:45:36.536Z,0.80
2019-04-28T17:48:07.111Z,0.80
2019-04-28T17:50:36.922Z,0.80
2019-04-28T17:53:05.960Z,1.10
2019-04-28T17:55:34.357Z,1.20
2019-04-28T17:58:02.767Z,1.23
2019-04-28T18:00:45.319Z,1.30
2019-04-28T18:03:15.666Z,1.00
2019-04-28T18:05:51.838Z,0.83
2019-04-28T18:08:21.480Z,0.80
2019-04-28T18:10:50.194Z,1.27
2019-04-28T18:13:18.676Z,0.80
2019-04-28T18:15:48.731Z,0.77
2019-04-28T18:18:19.015Z,0.90
2019-04-28T18:20:47.434Z,0.80
2019-04-28T18:23:15.829Z,0.90
2019-04-28T18:25:44.238Z,1.40
2019-04-28T18:28:12.680Z,1.00
2019-04-28T18:30:43.049Z,0.90
2019-04-28T18:33:25.200Z,1.00
2019-04-28T18:35:55.241Z,1.10
2019-04-28T18:38:35.359Z,1.40
2019-04-28T18:41:03.145Z,1.00
2019-04-28T18:43:49.454Z,1.30
2019-04-28T18:46:19.504Z,1.40
2019-04-28T18:48:48.194Z,1.77
2019-04-28T18:51:16.601Z,1.33
2019-04-28T18:53:45.277Z,1.50
2019-04-28T18:56:14.005Z,1.70
2019-04-28T18:58:42.485Z,1.50
2019-04-28T19:01:18.658Z,1.30
2019-04-28T19:03:47.046Z,1.70
2019-04-28T19:06:15.837Z,1.70
2019-04-28T19:09:09.932Z,1.40
2019-04-28T19:11:49.296Z,1.60
2019-04-28T19:14:37.563Z,1.67
2019-04-28T19:17:18.544Z,1.77
2019-04-28T19:19:47.240Z,1.60
2019-04-28T19:22:15.640Z,1.90
2019-04-28T19:24:44.039Z,1.90
2019-04-28T19:27:12.454Z,2.10
2019-04-28T19:29:40.849Z,1.80
2019-04-28T19:32:09.244Z,1.80
2019-04-28T19:34:37.746Z,1.77
2019-04-28T19:37:06.132Z,1.83
2019-04-28T19:39:40.654Z,1.70
2019-04-28T19:42:07.701Z,1.40
2019-04-28T19:44:36.382Z,1.70
2019-04-28T19:47:04.920Z,1.57
2019-04-28T19:49:33.792Z,1.43
2019-04-28T19:52:02.481Z,1.60
2019-04-28T19:54:32.820Z,1.83
2019-04-28T19:57:18.802Z,1.50
2019-04-28T20:00:05.653Z,1.40
2019-04-28T20:02:35.369Z,1.33
2019-04-28T20:05:04.299Z,1.30
2019-04-28T20:07:32.973Z,1.33
2019-04-28T20:10:01.519Z,1.40
2019-04-28T20:12:30.167Z,1.27
2019-04-28T20:14:58.584Z,1.30
2019-04-28T20:17:27.005Z,1.53
2019-04-28T20:19:55.392Z,1.50
2019-04-28T20:22:24.047Z,1.40
2019-04-28T20:24:52.966Z,1.50
2019-04-28T20:27:21.354Z,1.33
2019-04-28T20:29:50.042Z,1.67
2019-04-28T20:32:18.738Z,1.63
2019-04-28T20:34:47.437Z,2.10
2019-04-28T20:37:35.930Z,1.87
2019-04-28T20:40:13.811Z,2.00
2019-04-28T20:42:43.982Z,1.53
2019-04-28T20:45:14.376Z,1.80
2019-04-28T20:47:42.819Z,1.67
2019-04-28T20:50:11.924Z,1.50
2019-04-28T20:52:40.588Z,1.70
2019-04-28T20:55:09.253Z,1.67
2019-04-28T20:57:37.667Z,1.50
2019-04-28T21:00:06.666Z,1.30
2019-04-28T21:02:35.077Z,1.30
2019-04-28T21:05:04.292Z,1.27
2019-04-28T21:07:32.998Z,1.30
2019-04-28T21:10:01.389Z,1.47
2019-04-28T21:12:29.912Z,1.20
2019-04-28T21:14:58.352Z,1.30
2019-04-28T21:17:26.877Z,1.40
2019-04-28T21:19:55.664Z,1.20
2019-04-28T21:22:24.058Z,1.17
2019-04-28T21:24:52.462Z,1.30
2019-04-28T21:27:21.152Z,1.30
2019-04-28T21:29:49.556Z,1.40
2019-04-28T21:32:18.244Z,1.60
2019-04-28T21:34:46.659Z,1.47
2019-04-28T21:37:18.287Z,1.53
2019-04-28T21:39:45.771Z,1.70
2019-04-28T21:42:15.833Z,1.70
2019-04-28T21:44:48.711Z,1.40
2019-04-28T21:47:18.750Z,1.60
2019-04-28T21:49:47.424Z,1.30
2019-04-28T21:52:16.132Z,1.53
2019-04-28T21:54:44.524Z,1.40
2019-04-28T21:57:32.993Z,1.43
2019-04-28T22:00:01.699Z,1.20
2019-04-28T22:02:30.394Z,1.40
2019-04-28T22:04:58.828Z,1.60
2019-04-28T22:07:27.230Z,1.60
2019-04-28T22:09:55.872Z,1.80
2019-04-28T22:12:24.367Z,1.50
2019-04-28T22:14:53.066Z,1.80
2019-04-28T22:17:21.768Z,1.40
2019-04-28T22:19:50.179Z,1.40
2019-04-28T22:22:18.584Z,1.40
2019-04-28T22:24:48.884Z,1.50
2019-04-28T22:27:19.429Z,1.40
2019-04-28T22:29:48.341Z,1.40
2019-04-28T22:32:17.029Z,1.20
2019-04-28T22:34:45.725Z,1.33
2019-04-28T22:37:14.119Z,1.43
2019-04-28T22:39:42.821Z,1.60
2019-04-28T22:42:11.635Z,1.30
2019-04-28T22:44:40.026Z,1.27
2019-04-28T22:47:08.488Z,1.33
2019-04-28T22:49:37.485Z,1.37
2019-04-28T22:52:05.880Z,1.40
2019-04-28T22:54:42.495Z,1.40
2019-04-28T22:57:15.493Z,1.50
2019-04-28T22:59:51.272Z,1.47
2019-04-28T23:02:21.303Z,1.50
2019-04-28T23:04:51.419Z,1.50
2019-04-28T23:07:20.234Z,1.60
2019-04-28T23:09:48.937Z,1.40
2019-04-28T23:12:17.723Z,1.40
2019-04-28T23:14:46.575Z,1.40
2019-04-28T23:17:16.868Z,1.40
2019-04-28T23:19:45.340Z,1.37
2019-04-28T23:24:58.847Z,1.43
2019-04-28T23:27:27.656Z,1.53
2019-04-28T23:29:56.043Z,1.83
2019-04-28T23:32:24.758Z,2.03
2019-04-28T23:34:53.832Z,2.00
2019-04-28T23:37:22.560Z,2.40
2019-04-28T23:39:51.265Z,2.43
2019-04-28T23:42:24.568Z,2.27
2019-04-28T23:44:53.262Z,2.10
2019-04-28T23:47:21.664Z,2.20
2019-04-28T23:49:50.355Z,2.50
2019-04-28T23:52:35.212Z,2.27
2019-04-28T23:55:05.955Z,2.77
2019-04-28T23:57:34.731Z,2.33
